EJA238 KSGR-KMAF
Flight info
| Callsign | EJA238 |
|---|---|
| Flight time | 1h 12m |
| Altitude | 38000 |
| Route | BORRN6 JCT |
| Aircraft | CL60/M-SBDE1E2E3FGHIJ1J4J5J7M3RWXYZ/LB1V1D1 |
Departure
| Time | 2026-04-26 08:23 |
|---|---|
| Airport | Sugar Land Regional Airport (KSGR) |
Arrival
| Time | 2026-04-26 09:35 |
|---|---|
| Airport | Midland International Air and Space Port (KMAF) |
| Time | Latitude | Longitude | Altitude | Speed | Heading |
|---|---|---|---|---|---|
| 2026-04-26 08:00 | 29.63158 | -95.65510 | 85 ft | 0 kts | 355° |
| 2026-04-26 08:20 | 29.63162 | -95.65510 | 85 ft | 2 kts | 354° |
| 2026-04-26 08:20 | 29.63178 | -95.65512 | 85 ft | 3 kts | 351° |
| 2026-04-26 08:21 | 29.63190 | -95.65550 | 85 ft | 7 kts | 263° |
| 2026-04-26 08:21 | 29.63184 | -95.65628 | 85 ft | 11 kts | 265° |
| 2026-04-26 08:21 | 29.63217 | -95.65687 | 85 ft | 10 kts | 355° |
| 2026-04-26 08:21 | 29.63295 | -95.65699 | 85 ft | 11 kts | 320° |
| 2026-04-26 08:22 | 29.63271 | -95.65754 | 85 ft | 7 kts | 175° |
| 2026-04-26 08:22 | 29.63254 | -95.65751 | 85 ft | 0 kts | 173° |
| 2026-04-26 08:22 | 29.63087 | -95.65736 | 85 ft | 70 kts | 175° |
| 2026-04-26 08:22 | 29.62244 | -95.65650 | 150 ft | 160 kts | 175° |
| 2026-04-26 08:23 | 29.61057 | -95.65554 | 1017 ft | 182 kts | 175° |
| 2026-04-26 08:23 | 29.59831 | -95.65750 | 2163 ft | 192 kts | 204° |
| 2026-04-26 08:23 | 29.58914 | -95.66876 | 3451 ft | 210 kts | 246° |
| 2026-04-26 08:23 | 29.58721 | -95.68490 | 4770 ft | 222 kts | 266° |
| 2026-04-26 08:24 | 29.58801 | -95.70412 | 5574 ft | 259 kts | 282° |
| 2026-04-26 08:24 | 29.59672 | -95.72228 | 6789 ft | 275 kts | 306° |
| 2026-04-26 08:24 | 29.60896 | -95.73937 | 8182 ft | 277 kts | 307° |
| 2026-04-26 08:24 | 29.62085 | -95.75609 | 9446 ft | 279 kts | 307° |
| 2026-04-26 08:25 | 29.63312 | -95.77339 | 10729 ft | 282 kts | 307° |
| 2026-04-26 08:25 | 29.64545 | -95.79082 | 11949 ft | 285 kts | 307° |
| 2026-04-26 08:25 | 29.65801 | -95.80860 | 13120 ft | 288 kts | 307° |
| 2026-04-26 08:25 | 29.67049 | -95.82629 | 14247 ft | 291 kts | 307° |
| 2026-04-26 08:26 | 29.68315 | -95.84427 | 15340 ft | 295 kts | 308° |
| 2026-04-26 08:26 | 29.69588 | -95.86236 | 16459 ft | 296 kts | 308° |
| 2026-04-26 08:26 | 29.70876 | -95.88071 | 17472 ft | 300 kts | 308° |
| 2026-04-26 08:26 | 29.72185 | -95.89935 | 18416 ft | 304 kts | 308° |
| 2026-04-26 08:27 | 29.73517 | -95.91836 | 19394 ft | 306 kts | 307° |
| 2026-04-26 08:27 | 29.74846 | -95.93733 | 20334 ft | 308 kts | 307° |
| 2026-04-26 08:27 | 29.76186 | -95.95648 | 21200 ft | 311 kts | 307° |
| 2026-04-26 08:27 | 29.77548 | -95.97596 | 22046 ft | 314 kts | 307° |
| 2026-04-26 08:28 | 29.78905 | -95.99538 | 22857 ft | 317 kts | 307° |
| 2026-04-26 08:28 | 29.80294 | -96.01526 | 23718 ft | 319 kts | 307° |
| 2026-04-26 08:28 | 29.81682 | -96.03515 | 24566 ft | 321 kts | 307° |
| 2026-04-26 08:28 | 29.83075 | -96.05513 | 25358 ft | 324 kts | 306° |
| 2026-04-26 08:29 | 29.84484 | -96.07536 | 26157 ft | 326 kts | 306° |
| 2026-04-26 08:29 | 29.85908 | -96.09580 | 26908 ft | 328 kts | 306° |
| 2026-04-26 08:29 | 29.87337 | -96.11634 | 27653 ft | 330 kts | 305° |
| 2026-04-26 08:29 | 29.88767 | -96.13690 | 28339 ft | 332 kts | 306° |
| 2026-04-26 08:30 | 29.90217 | -96.15777 | 29006 ft | 334 kts | 305° |
| 2026-04-26 08:30 | 29.91681 | -96.17885 | 29681 ft | 335 kts | 304° |
| 2026-04-26 08:30 | 29.93086 | -96.20012 | 30238 ft | 336 kts | 299° |
| 2026-04-26 08:30 | 29.93959 | -96.22502 | 30709 ft | 337 kts | 283° |
| 2026-04-26 08:31 | 29.94389 | -96.25165 | 31113 ft | 343 kts | 281° |
| 2026-04-26 08:31 | 29.94814 | -96.27881 | 31585 ft | 347 kts | 281° |
| 2026-04-26 08:31 | 29.95248 | -96.30638 | 32031 ft | 350 kts | 281° |
| 2026-04-26 08:31 | 29.95682 | -96.33404 | 32440 ft | 354 kts | 281° |
| 2026-04-26 08:32 | 29.96120 | -96.36194 | 32839 ft | 357 kts | 281° |
| 2026-04-26 08:32 | 29.96565 | -96.39031 | 33265 ft | 359 kts | 281° |
| 2026-04-26 08:32 | 29.97004 | -96.41837 | 33666 ft | 362 kts | 281° |
| 2026-04-26 08:32 | 29.97452 | -96.44703 | 34186 ft | 361 kts | 281° |
| 2026-04-26 08:33 | 29.97891 | -96.47508 | 34846 ft | 356 kts | 281° |
| 2026-04-26 08:33 | 29.98323 | -96.50287 | 35514 ft | 351 kts | 281° |
| 2026-04-26 08:33 | 29.98752 | -96.53040 | 36155 ft | 345 kts | 282° |
| 2026-04-26 08:33 | 29.99168 | -96.55714 | 36725 ft | 341 kts | 282° |
| 2026-04-26 08:34 | 29.99584 | -96.58402 | 37173 ft | 339 kts | 281° |
| 2026-04-26 08:34 | 29.99996 | -96.61082 | 37569 ft | 337 kts | 281° |
| 2026-04-26 08:34 | 30.00402 | -96.63726 | 37774 ft | 341 kts | 282° |
| 2026-04-26 08:34 | 30.00823 | -96.66465 | 37780 ft | 348 kts | 281° |
| 2026-04-26 08:35 | 30.01689 | -96.72115 | 37778 ft | 364 kts | 281° |
| 2026-04-26 08:35 | 30.02583 | -96.77965 | 37776 ft | 377 kts | 281° |
| 2026-04-26 08:36 | 30.03504 | -96.84013 | 37782 ft | 386 kts | 281° |
| 2026-04-26 08:36 | 30.04428 | -96.90100 | 37787 ft | 388 kts | 281° |
| 2026-04-26 08:37 | 30.05355 | -96.96233 | 37785 ft | 387 kts | 281° |
| 2026-04-26 08:37 | 30.06277 | -97.02352 | 37790 ft | 386 kts | 281° |
| 2026-04-26 08:38 | 30.07189 | -97.08418 | 37794 ft | 386 kts | 281° |
| 2026-04-26 08:38 | 30.08108 | -97.14555 | 37798 ft | 386 kts | 281° |
| 2026-04-26 08:39 | 30.09012 | -97.20612 | 37796 ft | 385 kts | 281° |
| 2026-04-26 08:39 | 30.09919 | -97.26701 | 37791 ft | 384 kts | 281° |
| 2026-04-26 08:40 | 30.10821 | -97.32784 | 37792 ft | 384 kts | 281° |
| 2026-04-26 08:40 | 30.11716 | -97.38843 | 37800 ft | 384 kts | 281° |
| 2026-04-26 08:41 | 30.12612 | -97.44928 | 37798 ft | 384 kts | 281° |
| 2026-04-26 08:41 | 30.13502 | -97.50989 | 37801 ft | 384 kts | 281° |
| 2026-04-26 08:42 | 30.14387 | -97.57031 | 37796 ft | 384 kts | 281° |
| 2026-04-26 08:42 | 30.15277 | -97.63136 | 37806 ft | 383 kts | 280° |
| 2026-04-26 08:43 | 30.16160 | -97.69211 | 37799 ft | 384 kts | 280° |
| 2026-04-26 08:43 | 30.17067 | -97.75268 | 37794 ft | 383 kts | 282° |
| 2026-04-26 08:44 | 30.18300 | -97.81261 | 37792 ft | 383 kts | 283° |
| 2026-04-26 08:44 | 30.19542 | -97.87249 | 37791 ft | 383 kts | 284° |
| 2026-04-26 08:45 | 30.20782 | -97.93247 | 37789 ft | 383 kts | 283° |
| 2026-04-26 08:45 | 30.22012 | -97.99217 | 37789 ft | 382 kts | 283° |
| 2026-04-26 08:46 | 30.23231 | -98.05154 | 37788 ft | 382 kts | 283° |
| 2026-04-26 08:46 | 30.24457 | -98.11137 | 37787 ft | 382 kts | 283° |
| 2026-04-26 08:47 | 30.25672 | -98.17083 | 37788 ft | 382 kts | 283° |
| 2026-04-26 08:47 | 30.26883 | -98.23030 | 37788 ft | 382 kts | 283° |
| 2026-04-26 08:48 | 30.28102 | -98.29030 | 37791 ft | 382 kts | 283° |
| 2026-04-26 08:48 | 30.29311 | -98.34997 | 37791 ft | 382 kts | 283° |
| 2026-04-26 08:49 | 30.30555 | -98.40928 | 37793 ft | 382 kts | 283° |
| 2026-04-26 08:49 | 30.31829 | -98.46892 | 37795 ft | 382 kts | 284° |
| 2026-04-26 08:50 | 30.33096 | -98.52839 | 37793 ft | 382 kts | 284° |
| 2026-04-26 08:50 | 30.34356 | -98.58772 | 37803 ft | 381 kts | 283° |
| 2026-04-26 08:51 | 30.36251 | -98.67725 | 37803 ft | 382 kts | 283° |
| 2026-04-26 08:52 | 30.37518 | -98.73723 | 37805 ft | 382 kts | 283° |
| 2026-04-26 08:52 | 30.38767 | -98.79658 | 37811 ft | 382 kts | 283° |
| 2026-04-26 08:53 | 30.40023 | -98.85636 | 37819 ft | 382 kts | 283° |
| 2026-04-26 08:53 | 30.41266 | -98.91571 | 37820 ft | 382 kts | 283° |
| 2026-04-26 08:54 | 30.42510 | -98.97523 | 37822 ft | 381 kts | 283° |
| 2026-04-26 08:54 | 30.43756 | -99.03501 | 37827 ft | 381 kts | 282° |
| 2026-04-26 08:55 | 30.44992 | -99.09444 | 37834 ft | 381 kts | 283° |
| 2026-04-26 08:55 | 30.46232 | -99.15420 | 37828 ft | 381 kts | 283° |
| 2026-04-26 08:56 | 30.47462 | -99.21362 | 37834 ft | 380 kts | 282° |
| 2026-04-26 08:56 | 30.48692 | -99.27319 | 37835 ft | 380 kts | 282° |
| 2026-04-26 08:57 | 30.49915 | -99.33260 | 37840 ft | 381 kts | 283° |
| 2026-04-26 08:57 | 30.51141 | -99.39226 | 37835 ft | 380 kts | 283° |
| 2026-04-26 08:58 | 30.52358 | -99.45161 | 37844 ft | 380 kts | 282° |
| 2026-04-26 08:58 | 30.53575 | -99.51117 | 37839 ft | 380 kts | 282° |
| 2026-04-26 08:59 | 30.54789 | -99.57072 | 37837 ft | 380 kts | 283° |
| 2026-04-26 08:59 | 30.56001 | -99.63027 | 37836 ft | 380 kts | 282° |
| 2026-04-26 09:00 | 30.57211 | -99.68989 | 37831 ft | 380 kts | 282° |
| 2026-04-26 09:00 | 30.58411 | -99.74917 | 37818 ft | 379 kts | 282° |
| 2026-04-26 09:01 | 30.59885 | -99.80800 | 37827 ft | 382 kts | 291° |
| 2026-04-26 09:01 | 30.62679 | -99.86050 | 37829 ft | 389 kts | 302° |
| 2026-04-26 09:02 | 30.65999 | -99.90990 | 37846 ft | 388 kts | 302° |
| 2026-04-26 09:02 | 30.69315 | -99.95937 | 37860 ft | 387 kts | 302° |
| 2026-04-26 09:03 | 30.72592 | -100.00832 | 37870 ft | 387 kts | 302° |
| 2026-04-26 09:03 | 30.75896 | -100.05774 | 37868 ft | 386 kts | 302° |
| 2026-04-26 09:04 | 30.79172 | -100.10680 | 37874 ft | 386 kts | 302° |
| 2026-04-26 09:04 | 30.82465 | -100.15618 | 37876 ft | 386 kts | 302° |
| 2026-04-26 09:05 | 30.85763 | -100.20570 | 37877 ft | 386 kts | 302° |
| 2026-04-26 09:05 | 30.89034 | -100.25485 | 37874 ft | 386 kts | 302° |
| 2026-04-26 09:06 | 30.92315 | -100.30424 | 37877 ft | 385 kts | 302° |
| 2026-04-26 09:06 | 30.95573 | -100.35332 | 37877 ft | 385 kts | 301° |
| 2026-04-26 09:07 | 30.98845 | -100.40270 | 37878 ft | 385 kts | 302° |
| 2026-04-26 09:07 | 31.02125 | -100.45225 | 37864 ft | 386 kts | 302° |
| 2026-04-26 09:08 | 31.05400 | -100.50178 | 37853 ft | 386 kts | 302° |
| 2026-04-26 09:08 | 31.08679 | -100.55143 | 37869 ft | 386 kts | 302° |
| 2026-04-26 09:09 | 31.11962 | -100.60123 | 37852 ft | 387 kts | 301° |
| 2026-04-26 09:09 | 31.13589 | -100.62588 | 37488 ft | 380 kts | 301° |
| 2026-04-26 09:09 | 31.15182 | -100.65002 | 37044 ft | 372 kts | 301° |
| 2026-04-26 09:09 | 31.16760 | -100.67396 | 36581 ft | 367 kts | 300° |
| 2026-04-26 09:10 | 31.18305 | -100.69742 | 36115 ft | 361 kts | 301° |
| 2026-04-26 09:10 | 31.19806 | -100.72024 | 35644 ft | 357 kts | 300° |
| 2026-04-26 09:10 | 31.21302 | -100.74300 | 35189 ft | 352 kts | 300° |
| 2026-04-26 09:10 | 31.22796 | -100.76575 | 34728 ft | 348 kts | 301° |
| 2026-04-26 09:11 | 31.24258 | -100.78805 | 34264 ft | 346 kts | 300° |
| 2026-04-26 09:11 | 31.25726 | -100.81049 | 33808 ft | 350 kts | 300° |
| 2026-04-26 09:11 | 31.27211 | -100.83319 | 33357 ft | 353 kts | 300° |
| 2026-04-26 09:11 | 31.28696 | -100.85591 | 32898 ft | 355 kts | 300° |
| 2026-04-26 09:12 | 31.30187 | -100.87870 | 32418 ft | 354 kts | 300° |
| 2026-04-26 09:12 | 31.31674 | -100.90141 | 31937 ft | 352 kts | 300° |
| 2026-04-26 09:12 | 31.33144 | -100.92388 | 31493 ft | 349 kts | 300° |
| 2026-04-26 09:12 | 31.34622 | -100.94650 | 31017 ft | 348 kts | 300° |
| 2026-04-26 09:13 | 31.36076 | -100.96876 | 30577 ft | 347 kts | 300° |
| 2026-04-26 09:13 | 31.37545 | -100.99128 | 30103 ft | 345 kts | 300° |
| 2026-04-26 09:13 | 31.38990 | -101.01343 | 29653 ft | 343 kts | 300° |
| 2026-04-26 09:13 | 31.40428 | -101.03548 | 29203 ft | 342 kts | 300° |
| 2026-04-26 09:14 | 31.41866 | -101.05755 | 28751 ft | 341 kts | 300° |
| 2026-04-26 09:14 | 31.43282 | -101.07929 | 28290 ft | 339 kts | 300° |
| 2026-04-26 09:14 | 31.44706 | -101.10117 | 27843 ft | 336 kts | 301° |
| 2026-04-26 09:14 | 31.46123 | -101.12295 | 27396 ft | 333 kts | 301° |
| 2026-04-26 09:15 | 31.47517 | -101.14439 | 26956 ft | 332 kts | 301° |
| 2026-04-26 09:15 | 31.48896 | -101.16561 | 26512 ft | 330 kts | 301° |
| 2026-04-26 09:15 | 31.50291 | -101.18710 | 26080 ft | 329 kts | 302° |
| 2026-04-26 09:15 | 31.51663 | -101.20825 | 25649 ft | 328 kts | 301° |
| 2026-04-26 09:16 | 31.53031 | -101.22935 | 25207 ft | 326 kts | 302° |
| 2026-04-26 09:16 | 31.54403 | -101.25050 | 24776 ft | 325 kts | 302° |
| 2026-04-26 09:16 | 31.55754 | -101.27136 | 24349 ft | 323 kts | 302° |
| 2026-04-26 09:16 | 31.57105 | -101.29222 | 23918 ft | 321 kts | 302° |
| 2026-04-26 09:17 | 31.58464 | -101.31322 | 23489 ft | 320 kts | 303° |
| 2026-04-26 09:17 | 31.59354 | -101.32698 | 23210 ft | 319 kts | 302° |
| 2026-04-26 09:17 | 31.61126 | -101.35439 | 22659 ft | 316 kts | 303° |
| 2026-04-26 09:17 | 31.62443 | -101.37479 | 22239 ft | 315 kts | 303° |
| 2026-04-26 09:18 | 31.63761 | -101.39518 | 21825 ft | 313 kts | 303° |
| 2026-04-26 09:18 | 31.65080 | -101.41562 | 21411 ft | 311 kts | 303° |
| 2026-04-26 09:18 | 31.66380 | -101.43578 | 21002 ft | 310 kts | 303° |
| 2026-04-26 09:18 | 31.67669 | -101.45576 | 20597 ft | 308 kts | 303° |
| 2026-04-26 09:19 | 31.68965 | -101.47589 | 20190 ft | 306 kts | 303° |
| 2026-04-26 09:19 | 31.70244 | -101.49573 | 19788 ft | 303 kts | 303° |
| 2026-04-26 09:19 | 31.71508 | -101.51536 | 19387 ft | 301 kts | 302° |
| 2026-04-26 09:19 | 31.72773 | -101.53503 | 18986 ft | 300 kts | 303° |
| 2026-04-26 09:20 | 31.74025 | -101.55450 | 18590 ft | 298 kts | 302° |
| 2026-04-26 09:20 | 31.75271 | -101.57388 | 18197 ft | 297 kts | 302° |
| 2026-04-26 09:20 | 31.76503 | -101.59306 | 17809 ft | 296 kts | 302° |
| 2026-04-26 09:20 | 31.77734 | -101.61223 | 17415 ft | 294 kts | 302° |
| 2026-04-26 09:21 | 31.78956 | -101.63127 | 17025 ft | 293 kts | 302° |
| 2026-04-26 09:21 | 31.80197 | -101.65060 | 16803 ft | 289 kts | 302° |
| 2026-04-26 09:21 | 31.81460 | -101.66949 | 16395 ft | 301 kts | 308° |
| 2026-04-26 09:21 | 31.83128 | -101.68488 | 16003 ft | 302 kts | 319° |
| 2026-04-26 09:22 | 31.84871 | -101.69852 | 15651 ft | 301 kts | 320° |
| 2026-04-26 09:22 | 31.86628 | -101.71214 | 15294 ft | 303 kts | 320° |
| 2026-04-26 09:22 | 31.88380 | -101.72581 | 14927 ft | 303 kts | 320° |
| 2026-04-26 09:22 | 31.90130 | -101.73947 | 14568 ft | 303 kts | 320° |
| 2026-04-26 09:23 | 31.91882 | -101.75314 | 14198 ft | 303 kts | 320° |
| 2026-04-26 09:23 | 31.93667 | -101.76704 | 13830 ft | 303 kts | 320° |
| 2026-04-26 09:23 | 31.95406 | -101.78068 | 13474 ft | 303 kts | 320° |
| 2026-04-26 09:23 | 31.97156 | -101.79447 | 13106 ft | 302 kts | 320° |
| 2026-04-26 09:24 | 31.98916 | -101.80834 | 12741 ft | 302 kts | 320° |
| 2026-04-26 09:24 | 32.00644 | -101.82208 | 12378 ft | 301 kts | 320° |
| 2026-04-26 09:24 | 32.02371 | -101.83601 | 12009 ft | 298 kts | 320° |
| 2026-04-26 09:24 | 32.04067 | -101.84981 | 11643 ft | 296 kts | 320° |
| 2026-04-26 09:25 | 32.05748 | -101.86356 | 11286 ft | 293 kts | 320° |
| 2026-04-26 09:25 | 32.07415 | -101.87728 | 10929 ft | 292 kts | 320° |
| 2026-04-26 09:25 | 32.09087 | -101.89100 | 10577 ft | 288 kts | 320° |
| 2026-04-26 09:25 | 32.10713 | -101.90449 | 10226 ft | 283 kts | 320° |
| 2026-04-26 09:26 | 32.12249 | -101.91857 | 9911 ft | 272 kts | 309° |
| 2026-04-26 09:26 | 32.13079 | -101.93765 | 9533 ft | 262 kts | 279° |
| 2026-04-26 09:26 | 32.13290 | -101.95876 | 9105 ft | 260 kts | 275° |
| 2026-04-26 09:26 | 32.13475 | -101.97967 | 8745 ft | 257 kts | 276° |
| 2026-04-26 09:27 | 32.13679 | -102.00041 | 8391 ft | 253 kts | 277° |
| 2026-04-26 09:27 | 32.13954 | -102.02079 | 8207 ft | 242 kts | 279° |
| 2026-04-26 09:27 | 32.14225 | -102.03966 | 8145 ft | 228 kts | 278° |
| 2026-04-26 09:27 | 32.14485 | -102.05791 | 7853 ft | 225 kts | 278° |
| 2026-04-26 09:28 | 32.14740 | -102.07588 | 7572 ft | 222 kts | 279° |
| 2026-04-26 09:28 | 32.14993 | -102.09367 | 7285 ft | 219 kts | 279° |
| 2026-04-26 09:28 | 32.15242 | -102.11128 | 7000 ft | 216 kts | 279° |
| 2026-04-26 09:28 | 32.15488 | -102.12863 | 6719 ft | 213 kts | 279° |
| 2026-04-26 09:29 | 32.15723 | -102.14529 | 6449 ft | 202 kts | 279° |
| 2026-04-26 09:29 | 32.15948 | -102.16116 | 6196 ft | 190 kts | 279° |
| 2026-04-26 09:29 | 32.16159 | -102.17612 | 5951 ft | 180 kts | 279° |
| 2026-04-26 09:29 | 32.16359 | -102.19033 | 5723 ft | 171 kts | 279° |
| 2026-04-26 09:30 | 32.16452 | -102.20383 | 5496 ft | 163 kts | 263° |
| 2026-04-26 09:30 | 32.16008 | -102.21594 | 5222 ft | 163 kts | 233° |
| 2026-04-26 09:30 | 32.15076 | -102.22333 | 5119 ft | 168 kts | 201° |
| 2026-04-26 09:30 | 32.13882 | -102.22427 | 5123 ft | 174 kts | 180° |
| 2026-04-26 09:31 | 32.12671 | -102.22276 | 5134 ft | 176 kts | 179° |
| 2026-04-26 09:31 | 32.11449 | -102.22137 | 5131 ft | 175 kts | 180° |
| 2026-04-26 09:31 | 32.10231 | -102.22010 | 5132 ft | 175 kts | 179° |
| 2026-04-26 09:31 | 32.09014 | -102.21886 | 5131 ft | 175 kts | 180° |
| 2026-04-26 09:32 | 32.07800 | -102.21761 | 5131 ft | 174 kts | 180° |
| 2026-04-26 09:32 | 32.06567 | -102.21636 | 4934 ft | 181 kts | 179° |
| 2026-04-26 09:32 | 32.05341 | -102.21510 | 4700 ft | 169 kts | 179° |
| 2026-04-26 09:32 | 32.04228 | -102.21390 | 4461 ft | 150 kts | 179° |
| 2026-04-26 09:33 | 32.03261 | -102.21290 | 4279 ft | 131 kts | 180° |
| 2026-04-26 09:33 | 32.02365 | -102.21203 | 4097 ft | 129 kts | 179° |
| 2026-04-26 09:33 | 32.01469 | -102.21113 | 3924 ft | 126 kts | 179° |
| 2026-04-26 09:33 | 32.00709 | -102.21028 | 3779 ft | 126 kts | 178° |
| 2026-04-26 09:34 | 31.99837 | -102.20940 | 3615 ft | 124 kts | 178° |
| 2026-04-26 09:34 | 31.98983 | -102.20854 | 3465 ft | 123 kts | 179° |
| 2026-04-26 09:34 | 31.98133 | -102.20767 | 3311 ft | 121 kts | 179° |
| 2026-04-26 09:34 | 31.97293 | -102.20684 | 3159 ft | 121 kts | 178° |
| 2026-04-26 09:35 | 31.96465 | -102.20603 | 2997 ft | 120 kts | 178° |
| 2026-04-26 09:35 | 31.95629 | -102.20519 | 2877 ft | 115 kts | 177° |
| 2026-04-26 09:35 | 31.94977 | -102.20456 | 2868 ft | 57 kts | 176° |
| 2026-04-26 09:35 | 31.94652 | -102.20419 | 2865 ft | 41 kts | 177° |
| 2026-04-26 09:36 | 31.94384 | -102.20393 | 2863 ft | 27 kts | 177° |
| 2026-04-26 09:36 | 31.94194 | -102.20379 | 2861 ft | 20 kts | 181° |
| 2026-04-26 09:36 | 31.94067 | -102.20391 | 2860 ft | 16 kts | 196° |
| 2026-04-26 09:36 | 31.93959 | -102.20451 | 2860 ft | 18 kts | 206° |
| 2026-04-26 09:37 | 31.93872 | -102.20521 | 2860 ft | 12 kts | 263° |
| 2026-04-26 09:37 | 31.93877 | -102.20628 | 2860 ft | 11 kts | 265° |
| 2026-04-26 09:37 | 31.93906 | -102.20667 | 2861 ft | 7 kts | 2° |
| 2026-04-26 09:37 | 31.93926 | -102.20670 | 2861 ft | 0 kts | 356° |